sensor_id;sensor_type;location;lat;lon;timestamp;temperature;humidity
3053;DHT22;1536;51.098;6.414;2024-03-23T00:54:28;9.50;99.90
3053;DHT22;1536;51.098;6.414;2024-03-23T00:56:54;9.50;99.90
3053;DHT22;1536;51.098;6.414;2024-03-23T00:59:20;9.40;99.90
3053;DHT22;1536;51.098;6.414;2024-03-23T01:01:49;9.40;99.90
3053;DHT22;1536;51.098;6.414;2024-03-23T01:04:16;9.30;99.90
3053;DHT22;1536;51.098;6.414;2024-03-23T01:06:42;9.20;99.90
3053;DHT22;1536;51.098;6.414;2024-03-23T01:09:08;9.20;99.90
3053;DHT22;1536;51.098;6.414;2024-03-23T01:11:36;9.20;99.90
3053;DHT22;1536;51.098;6.414;2024-03-23T01:14:03;9.10;99.90
3053;DHT22;1536;51.098;6.414;2024-03-23T01:16:29;9.10;99.90
3053;DHT22;1536;51.098;6.414;2024-03-23T01:18:57;9.00;99.90
3053;DHT22;1536;51.098;6.414;2024-03-23T01:21:23;9.00;99.90
3053;DHT22;1536;51.098;6.414;2024-03-23T01:23:50;9.00;99.90
3053;DHT22;1536;51.098;6.414;2024-03-23T01:26:16;9.00;99.90
3053;DHT22;1536;51.098;6.414;2024-03-23T01:28:43;9.00;99.90
3053;DHT22;1536;51.098;6.414;2024-03-23T01:31:08;8.90;99.90
3053;DHT22;1536;51.098;6.414;2024-03-23T01:33:35;8.90;99.90
3053;DHT22;1536;51.098;6.414;2024-03-23T01:36:03;8.80;99.90
3053;DHT22;1536;51.098;6.414;2024-03-23T01:38:30;8.80;99.90
3053;DHT22;1536;51.098;6.414;2024-03-23T01:40:57;8.80;99.90
3053;DHT22;1536;51.098;6.414;2024-03-23T01:43:24;8.80;99.90
3053;DHT22;1536;51.098;6.414;2024-03-23T01:46:01;8.80;99.90
3053;DHT22;1536;51.098;6.414;2024-03-23T01:48:28;8.90;99.90
3053;DHT22;1536;51.098;6.414;2024-03-23T01:50:54;8.90;99.90
3053;DHT22;1536;51.098;6.414;2024-03-23T01:53:22;8.90;99.90
3053;DHT22;1536;51.098;6.414;2024-03-23T01:55:49;8.90;99.90
3053;DHT22;1536;51.098;6.414;2024-03-23T01:58:16;8.90;99.90
3053;DHT22;1536;51.098;6.414;2024-03-23T02:00:42;8.90;99.90
3053;DHT22;1536;51.098;6.414;2024-03-23T02:03:27;8.90;99.90
3053;DHT22;1536;51.098;6.414;2024-03-23T02:05:54;9.00;99.90
3053;DHT22;1536;51.098;6.414;2024-03-23T02:08:22;9.00;99.90
3053;DHT22;1536;51.098;6.414;2024-03-23T02:10:48;9.00;99.90
3053;DHT22;1536;51.098;6.414;2024-03-23T02:13:17;8.90;99.90
3053;DHT22;1536;51.098;6.414;2024-03-23T02:15:43;8.90;99.90
3053;DHT22;1536;51.098;6.414;2024-03-23T02:18:10;8.90;99.90
3053;DHT22;1536;51.098;6.414;2024-03-23T02:20:38;8.90;99.90
3053;DHT22;1536;51.098;6.414;2024-03-23T02:23:12;8.90;99.90
3053;DHT22;1536;51.098;6.414;2024-03-23T02:25:38;9.00;99.90
3053;DHT22;1536;51.098;6.414;2024-03-23T02:28:05;9.00;99.90
3053;DHT22;1536;51.098;6.414;2024-03-23T02:30:31;9.00;99.90
3053;DHT22;1536;51.098;6.414;2024-03-23T02:32:58;9.00;99.90
3053;DHT22;1536;51.098;6.414;2024-03-23T02:35:24;9.00;99.90
3053;DHT22;1536;51.098;6.414;2024-03-23T02:37:50;9.10;99.90
3053;DHT22;1536;51.098;6.414;2024-03-23T02:40:19;9.10;99.90
3053;DHT22;1536;51.098;6.414;2024-03-23T02:42:46;9.20;99.90
3053;DHT22;1536;51.098;6.414;2024-03-23T02:45:12;9.20;99.90
3053;DHT22;1536;51.098;6.414;2024-03-23T02:47:39;9.20;99.90
3053;DHT22;1536;51.098;6.414;2024-03-23T02:50:05;9.20;99.90
3053;DHT22;1536;51.098;6.414;2024-03-23T02:52:32;9.20;99.90
3053;DHT22;1536;51.098;6.414;2024-03-23T02:54:58;9.20;99.90
3053;DHT22;1536;51.098;6.414;2024-03-23T02:57:28;9.20;99.90
3053;DHT22;1536;51.098;6.414;2024-03-23T02:59:55;9.20;99.90
3053;DHT22;1536;51.098;6.414;2024-03-23T03:02:21;9.30;99.90
3053;DHT22;1536;51.098;6.414;2024-03-23T03:04:47;9.30;99.90
3053;DHT22;1536;51.098;6.414;2024-03-23T03:07:14;9.30;99.90
3053;DHT22;1536;51.098;6.414;2024-03-23T03:09:40;9.30;99.90
3053;DHT22;1536;51.098;6.414;2024-03-23T03:12:07;9.30;99.90
3053;DHT22;1536;51.098;6.414;2024-03-23T03:14:35;9.30;99.90
3053;DHT22;1536;51.098;6.414;2024-03-23T03:17:01;9.30;99.90
3053;DHT22;1536;51.098;6.414;2024-03-23T03:19:27;9.30;99.90
3053;DHT22;1536;51.098;6.414;2024-03-23T03:21:54;9.30;99.90
3053;DHT22;1536;51.098;6.414;2024-03-23T03:24:20;9.30;99.90
3053;DHT22;1536;51.098;6.414;2024-03-23T03:26:47;9.30;99.90
3053;DHT22;1536;51.098;6.414;2024-03-23T03:29:13;9.30;99.90
3053;DHT22;1536;51.098;6.414;2024-03-23T03:31:41;9.30;99.90
3053;DHT22;1536;51.098;6.414;2024-03-23T03:34:07;9.20;99.90
3053;DHT22;1536;51.098;6.414;2024-03-23T03:36:34;9.20;99.90
3053;DHT22;1536;51.098;6.414;2024-03-23T03:39:00;9.20;99.90
3053;DHT22;1536;51.098;6.414;2024-03-23T03:41:28;9.20;99.90
3053;DHT22;1536;51.098;6.414;2024-03-23T03:43:54;9.30;99.90
3053;DHT22;1536;51.098;6.414;2024-03-23T03:46:21;9.30;99.90
3053;DHT22;1536;51.098;6.414;2024-03-23T03:48:49;9.20;99.90
3053;DHT22;1536;51.098;6.414;2024-03-23T03:51:16;9.20;99.90
3053;DHT22;1536;51.098;6.414;2024-03-23T03:53:42;9.20;99.90
3053;DHT22;1536;51.098;6.414;2024-03-23T03:56:09;9.20;99.90
3053;DHT22;1536;51.098;6.414;2024-03-23T03:58:34;9.20;99.90
3053;DHT22;1536;51.098;6.414;2024-03-23T04:01:01;9.20;99.90
3053;DHT22;1536;51.098;6.414;2024-03-23T04:03:27;9.20;99.90
3053;DHT22;1536;51.098;6.414;2024-03-23T04:05:55;9.20;99.90
3053;DHT22;1536;51.098;6.414;2024-03-23T04:08:21;9.10;99.90
3053;DHT22;1536;51.098;6.414;2024-03-23T04:10:48;9.10;99.90
3053;DHT22;1536;51.098;6.414;2024-03-23T04:13:14;9.10;99.90
3053;DHT22;1536;51.098;6.414;2024-03-23T04:15:42;9.00;99.90
3053;DHT22;1536;51.098;6.414;2024-03-23T04:18:08;9.00;99.90
3053;DHT22;1536;51.098;6.414;2024-03-23T04:20:34;9.00;99.90
3053;DHT22;1536;51.098;6.414;2024-03-23T04:23:02;8.90;99.90
3053;DHT22;1536;51.098;6.414;2024-03-23T04:25:29;8.90;99.90
3053;DHT22;1536;51.098;6.414;2024-03-23T04:27:54;8.90;99.90
3053;DHT22;1536;51.098;6.414;2024-03-23T04:30:21;8.90;99.90
3053;DHT22;1536;51.098;6.414;2024-03-23T04:32:50;8.90;99.90
3053;DHT22;1536;51.098;6.414;2024-03-23T04:35:17;8.90;99.90
3053;DHT22;1536;51.098;6.414;2024-03-23T04:37:43;8.90;99.90
3053;DHT22;1536;51.098;6.414;2024-03-23T04:40:11;8.90;99.90
3053;DHT22;1536;51.098;6.414;2024-03-23T04:42:39;8.80;99.90
3053;DHT22;1536;51.098;6.414;2024-03-23T04:45:06;8.80;99.90
3053;DHT22;1536;51.098;6.414;2024-03-23T04:47:33;8.80;99.90
3053;DHT22;1536;51.098;6.414;2024-03-23T04:50:01;8.80;99.90
3053;DHT22;1536;51.098;6.414;2024-03-23T04:52:29;8.80;99.90
3053;DHT22;1536;51.098;6.414;2024-03-23T04:54:55;8.80;99.90
3053;DHT22;1536;51.098;6.414;2024-03-23T04:57:24;8.70;99.90
3053;DHT22;1536;51.098;6.414;2024-03-23T04:59:51;8.70;99.90
3053;DHT22;1536;51.098;6.414;2024-03-23T05:02:17;8.70;99.90
3053;DHT22;1536;51.098;6.414;2024-03-23T05:04:43;8.70;99.90
3053;DHT22;1536;51.098;6.414;2024-03-23T05:07:09;8.70;99.90
3053;DHT22;1536;51.098;6.414;2024-03-23T05:09:36;8.70;99.90
3053;DHT22;1536;51.098;6.414;2024-03-23T05:12:02;8.70;99.90
3053;DHT22;1536;51.098;6.414;2024-03-23T05:14:31;8.70;99.90
3053;DHT22;1536;51.098;6.414;2024-03-23T05:16:56;8.70;99.90
3053;DHT22;1536;51.098;6.414;2024-03-23T05:19:23;8.60;99.90
3053;DHT22;1536;51.098;6.414;2024-03-23T05:21:49;8.60;99.90
3053;DHT22;1536;51.098;6.414;2024-03-23T05:24:16;8.60;99.90
3053;DHT22;1536;51.098;6.414;2024-03-23T05:26:42;8.60;99.90
3053;DHT22;1536;51.098;6.414;2024-03-23T05:29:09;8.50;99.90
3053;DHT22;1536;51.098;6.414;2024-03-23T05:31:40;8.60;99.90
3053;DHT22;1536;51.098;6.414;2024-03-23T05:34:08;8.50;99.90
3053;DHT22;1536;51.098;6.414;2024-03-23T05:36:34;8.50;99.90
3053;DHT22;1536;51.098;6.414;2024-03-23T05:39:01;8.50;99.90
3053;DHT22;1536;51.098;6.414;2024-03-23T05:41:27;8.50;99.90
3053;DHT22;1536;51.098;6.414;2024-03-23T05:43:54;8.50;99.90
3053;DHT22;1536;51.098;6.414;2024-03-23T05:46:20;8.40;99.90
3053;DHT22;1536;51.098;6.414;2024-03-23T05:48:48;8.40;99.90
3053;DHT22;1536;51.098;6.414;2024-03-23T05:51:15;8.40;99.90
3053;DHT22;1536;51.098;6.414;2024-03-23T05:53:42;8.40;99.90
3053;DHT22;1536;51.098;6.414;2024-03-23T05:56:08;8.40;99.90
3053;DHT22;1536;51.098;6.414;2024-03-23T05:58:35;8.40;99.90
3053;DHT22;1536;51.098;6.414;2024-03-23T06:01:02;8.40;99.90
3053;DHT22;1536;51.098;6.414;2024-03-23T06:03:29;8.40;99.90
3053;DHT22;1536;51.098;6.414;2024-03-23T06:05:57;8.30;99.90
3053;DHT22;1536;51.098;6.414;2024-03-23T06:08:23;8.30;99.90
3053;DHT22;1536;51.098;6.414;2024-03-23T06:10:50;8.40;99.90
3053;DHT22;1536;51.098;6.414;2024-03-23T06:13:17;8.30;99.90
3053;DHT22;1536;51.098;6.414;2024-03-23T06:15:44;8.30;99.90
3053;DHT22;1536;51.098;6.414;2024-03-23T06:18:11;8.30;99.90
3053;DHT22;1536;51.098;6.414;2024-03-23T06:20:38;8.30;99.90
3053;DHT22;1536;51.098;6.414;2024-03-23T06:23:06;8.30;99.90
3053;DHT22;1536;51.098;6.414;2024-03-23T06:25:33;8.30;99.90
3053;DHT22;1536;51.098;6.414;2024-03-23T06:27:58;8.30;99.90
3053;DHT22;1536;51.098;6.414;2024-03-23T06:30:27;8.30;99.90
3053;DHT22;1536;51.098;6.414;2024-03-23T06:32:53;8.30;99.90
3053;DHT22;1536;51.098;6.414;2024-03-23T06:35:20;8.20;99.90
3053;DHT22;1536;51.098;6.414;2024-03-23T06:37:46;8.20;99.90
3053;DHT22;1536;51.098;6.414;2024-03-23T06:40:14;8.30;99.90
3053;DHT22;1536;51.098;6.414;2024-03-23T06:42:40;8.30;99.90
3053;DHT22;1536;51.098;6.414;2024-03-23T06:45:07;8.20;99.90
3053;DHT22;1536;51.098;6.414;2024-03-23T06:47:34;8.30;99.90
3053;DHT22;1536;51.098;6.414;2024-03-23T06:50:03;8.30;99.90
3053;DHT22;1536;51.098;6.414;2024-03-23T06:52:29;8.30;99.90
3053;DHT22;1536;51.098;6.414;2024-03-23T06:54:56;8.30;99.90
3053;DHT22;1536;51.098;6.414;2024-03-23T06:57:23;8.40;99.90
3053;DHT22;1536;51.098;6.414;2024-03-23T06:59:50;8.40;99.90
3053;DHT22;1536;51.098;6.414;2024-03-23T07:02:17;8.40;99.90
3053;DHT22;1536;51.098;6.414;2024-03-23T07:04:44;8.40;99.90
3053;DHT22;1536;51.098;6.414;2024-03-23T07:07:09;8.50;99.90
3053;DHT22;1536;51.098;6.414;2024-03-23T07:09:37;8.60;99.90
3053;DHT22;1536;51.098;6.414;2024-03-23T07:12:03;8.60;99.90
3053;DHT22;1536;51.098;6.414;2024-03-23T07:14:31;8.60;99.90
3053;DHT22;1536;51.098;6.414;2024-03-23T07:16:57;8.60;99.90
3053;DHT22;1536;51.098;6.414;2024-03-23T07:19:24;8.70;99.90
3053;DHT22;1536;51.098;6.414;2024-03-23T07:21:55;8.70;99.90
3053;DHT22;1536;51.098;6.414;2024-03-23T07:24:35;8.70;99.90
3053;DHT22;1536;51.098;6.414;2024-03-23T07:27:05;8.70;99.90
3053;DHT22;1536;51.098;6.414;2024-03-23T07:29:32;8.70;99.90
3053;DHT22;1536;51.098;6.414;2024-03-23T07:31:59;8.70;99.90
3053;DHT22;1536;51.098;6.414;2024-03-23T07:34:25;8.80;99.90
3053;DHT22;1536;51.098;6.414;2024-03-23T07:36:52;8.80;99.90
3053;DHT22;1536;51.098;6.414;2024-03-23T07:39:17;8.80;99.90
3053;DHT22;1536;51.098;6.414;2024-03-23T07:41:44;8.80;99.90
3053;DHT22;1536;51.098;6.414;2024-03-23T07:44:10;8.80;99.90
3053;DHT22;1536;51.098;6.414;2024-03-23T07:46:39;8.80;99.90
3053;DHT22;1536;51.098;6.414;2024-03-23T07:49:04;8.80;99.90
3053;DHT22;1536;51.098;6.414;2024-03-23T07:51:31;8.90;99.90
3053;DHT22;1536;51.098;6.414;2024-03-23T07:53:58;8.90;99.90
3053;DHT22;1536;51.098;6.414;2024-03-23T07:56:25;8.90;99.90
3053;DHT22;1536;51.098;6.414;2024-03-23T07:58:51;9.00;99.90
3053;DHT22;1536;51.098;6.414;2024-03-23T08:01:17;9.00;99.90
3053;DHT22;1536;51.098;6.414;2024-03-23T08:03:45;9.10;99.90
3053;DHT22;1536;51.098;6.414;2024-03-23T08:06:13;9.10;99.90
3053;DHT22;1536;51.098;6.414;2024-03-23T08:08:40;9.10;99.90
3053;DHT22;1536;51.098;6.414;2024-03-23T08:11:08;9.10;99.90
3053;DHT22;1536;51.098;6.414;2024-03-23T08:13:35;9.10;99.90
3053;DHT22;1536;51.098;6.414;2024-03-23T08:16:03;9.10;99.90
3053;DHT22;1536;51.098;6.414;2024-03-23T08:18:30;9.20;99.90
3053;DHT22;1536;51.098;6.414;2024-03-23T08:20:58;9.20;99.90
3053;DHT22;1536;51.098;6.414;2024-03-23T08:23:25;9.20;99.90
3053;DHT22;1536;51.098;6.414;2024-03-23T08:25:52;9.30;99.90
3053;DHT22;1536;51.098;6.414;2024-03-23T08:28:18;9.30;99.90
3053;DHT22;1536;51.098;6.414;2024-03-23T08:30:44;9.40;99.90
3053;DHT22;1536;51.098;6.414;2024-03-23T08:33:10;9.40;99.90
3053;DHT22;1536;51.098;6.414;2024-03-23T08:35:38;9.40;99.90
3053;DHT22;1536;51.098;6.414;2024-03-23T08:38:05;9.50;99.90
3053;DHT22;1536;51.098;6.414;2024-03-23T08:40:32;9.50;99.90
3053;DHT22;1536;51.098;6.414;2024-03-23T08:42:58;9.50;99.90
3053;DHT22;1536;51.098;6.414;2024-03-23T08:45:25;9.50;99.90
3053;DHT22;1536;51.098;6.414;2024-03-23T08:47:51;9.60;99.90
3053;DHT22;1536;51.098;6.414;2024-03-23T08:50:18;9.60;99.90
3053;DHT22;1536;51.098;6.414;2024-03-23T08:52:44;9.70;99.90
3053;DHT22;1536;51.098;6.414;2024-03-23T08:55:12;9.70;99.90
3053;DHT22;1536;51.098;6.414;2024-03-23T08:57:39;9.80;99.90
3053;DHT22;1536;51.098;6.414;2024-03-23T09:00:06;9.90;99.90
3053;DHT22;1536;51.098;6.414;2024-03-23T09:02:34;10.00;99.90
3053;DHT22;1536;51.098;6.414;2024-03-23T09:05:01;10.00;99.90
3053;DHT22;1536;51.098;6.414;2024-03-23T09:07:30;10.10;99.90
3053;DHT22;1536;51.098;6.414;2024-03-23T09:09:57;10.00;99.90
3053;DHT22;1536;51.098;6.414;2024-03-23T09:12:24;10.00;99.90
3053;DHT22;1536;51.098;6.414;2024-03-23T09:14:51;10.00;99.90
3053;DHT22;1536;51.098;6.414;2024-03-23T09:17:18;10.10;99.90
3053;DHT22;1536;51.098;6.414;2024-03-23T09:19:45;10.20;99.90
3053;DHT22;1536;51.098;6.414;2024-03-23T09:22:11;10.30;99.90
3053;DHT22;1536;51.098;6.414;2024-03-23T09:24:38;10.40;99.90
3053;DHT22;1536;51.098;6.414;2024-03-23T09:27:04;10.50;99.90
3053;DHT22;1536;51.098;6.414;2024-03-23T09:29:33;10.50;99.90
3053;DHT22;1536;51.098;6.414;2024-03-23T09:31:58;10.60;99.90
3053;DHT22;1536;51.098;6.414;2024-03-23T09:34:25;10.60;99.90
3053;DHT22;1536;51.098;6.414;2024-03-23T09:36:51;10.50;99.90
3053;DHT22;1536;51.098;6.414;2024-03-23T09:39:18;10.50;99.90
3053;DHT22;1536;51.098;6.414;2024-03-23T09:41:45;10.50;99.90
3053;DHT22;1536;51.098;6.414;2024-03-23T09:44:11;10.50;99.90
3053;DHT22;1536;51.098;6.414;2024-03-23T09:46:39;10.50;99.90
3053;DHT22;1536;51.098;6.414;2024-03-23T09:49:07;10.50;99.90
3053;DHT22;1536;51.098;6.414;2024-03-23T09:51:35;10.50;99.90
3053;DHT22;1536;51.098;6.414;2024-03-23T09:54:02;10.70;99.90
3053;DHT22;1536;51.098;6.414;2024-03-23T09:56:28;10.80;99.90
3053;DHT22;1536;51.098;6.414;2024-03-23T09:59:01;10.90;99.90
3053;DHT22;1536;51.098;6.414;2024-03-23T10:01:27;10.90;99.90
3053;DHT22;1536;51.098;6.414;2024-03-23T10:03:55;10.80;99.90
3053;DHT22;1536;51.098;6.414;2024-03-23T10:06:21;10.70;99.90
3053;DHT22;1536;51.098;6.414;2024-03-23T10:08:50;10.70;99.90
3053;DHT22;1536;51.098;6.414;2024-03-23T10:11:16;10.60;99.90
3053;DHT22;1536;51.098;6.414;2024-03-23T10:13:44;10.50;99.90
3053;DHT22;1536;51.098;6.414;2024-03-23T10:16:12;10.50;99.90
3053;DHT22;1536;51.098;6.414;2024-03-23T10:18:47;10.40;99.90
3053;DHT22;1536;51.098;6.414;2024-03-23T10:21:15;10.30;99.90
3053;DHT22;1536;51.098;6.414;2024-03-23T10:23:43;10.20;99.90
3053;DHT22;1536;51.098;6.414;2024-03-23T10:26:16;10.20;99.90
3053;DHT22;1536;51.098;6.414;2024-03-23T10:28:56;10.30;99.90
3053;DHT22;1536;51.098;6.414;2024-03-23T10:31:23;10.40;99.90
3053;DHT22;1536;51.098;6.414;2024-03-23T10:33:50;10.60;99.90
3053;DHT22;1536;51.098;6.414;2024-03-23T10:36:21;10.70;99.90
3053;DHT22;1536;51.098;6.414;2024-03-23T10:38:50;10.50;99.90
3053;DHT22;1536;51.098;6.414;2024-03-23T10:41:16;10.30;99.90
3053;DHT22;1536;51.098;6.414;2024-03-23T10:43:43;9.90;99.90
3053;DHT22;1536;51.098;6.414;2024-03-23T10:46:10;9.60;99.90
3053;DHT22;1536;51.098;6.414;2024-03-23T10:48:37;9.40;99.90
3053;DHT22;1536;51.098;6.414;2024-03-23T10:51:04;9.20;99.90
3053;DHT22;1536;51.098;6.414;2024-03-23T10:53:34;9.00;99.90
3053;DHT22;1536;51.098;6.414;2024-03-23T10:56:00;8.80;99.90
3053;DHT22;1536;51.098;6.414;2024-03-23T10:58:30;8.70;99.90
3053;DHT22;1536;51.098;6.414;2024-03-23T11:00:56;8.60;99.90
3053;DHT22;1536;51.098;6.414;2024-03-23T11:03:33;8.50;99.90
3053;DHT22;1536;51.098;6.414;2024-03-23T11:06:00;8.50;99.90
3053;DHT22;1536;51.098;6.414;2024-03-23T11:08:34;8.60;99.90
3053;DHT22;1536;51.098;6.414;2024-03-23T11:11:14;8.70;99.90
3053;DHT22;1536;51.098;6.414;2024-03-23T11:13:41;8.80;99.90
3053;DHT22;1536;51.098;6.414;2024-03-23T11:16:14;8.90;99.90
3053;DHT22;1536;51.098;6.414;2024-03-23T11:18:41;9.00;99.90
3053;DHT22;1536;51.098;6.414;2024-03-23T11:21:07;9.10;99.90
3053;DHT22;1536;51.098;6.414;2024-03-23T11:23:36;9.20;99.90
3053;DHT22;1536;51.098;6.414;2024-03-23T11:26:02;9.30;99.90
3053;DHT22;1536;51.098;6.414;2024-03-23T11:28:30;9.40;99.90
3053;DHT22;1536;51.098;6.414;2024-03-23T11:30:56;9.60;99.90
3053;DHT22;1536;51.098;6.414;2024-03-23T11:33:23;9.70;99.90
3053;DHT22;1536;51.098;6.414;2024-03-23T11:35:49;9.90;99.90
3053;DHT22;1536;51.098;6.414;2024-03-23T11:38:17;9.90;99.90
3053;DHT22;1536;51.098;6.414;2024-03-23T11:40:46;10.00;99.90
3053;DHT22;1536;51.098;6.414;2024-03-23T11:43:14;9.80;99.90
3053;DHT22;1536;51.098;6.414;2024-03-23T11:45:43;9.60;99.90
3053;DHT22;1536;51.098;6.414;2024-03-23T11:48:11;9.40;99.90
3053;DHT22;1536;51.098;6.414;2024-03-23T11:50:39;9.20;99.90
3053;DHT22;1536;51.098;6.414;2024-03-23T11:53:15;9.10;99.90
3053;DHT22;1536;51.098;6.414;2024-03-23T11:55:47;9.00;99.90
3053;DHT22;1536;51.098;6.414;2024-03-23T11:58:15;9.00;99.90
3053;DHT22;1536;51.098;6.414;2024-03-23T12:00:41;8.90;99.90
3053;DHT22;1536;51.098;6.414;2024-03-23T12:03:08;8.90;99.90
3053;DHT22;1536;51.098;6.414;2024-03-23T12:05:36;8.80;99.90
3053;DHT22;1536;51.098;6.414;2024-03-23T12:08:23;8.70;99.90
3053;DHT22;1536;51.098;6.414;2024-03-23T12:10:53;8.50;99.90
3053;DHT22;1536;51.098;6.414;2024-03-23T12:13:20;8.40;99.90
3053;DHT22;1536;51.098;6.414;2024-03-23T12:15:49;8.30;99.90
3053;DHT22;1536;51.098;6.414;2024-03-23T12:18:15;8.20;99.90
3053;DHT22;1536;51.098;6.414;2024-03-23T12:20:42;8.20;99.90
3053;DHT22;1536;51.098;6.414;2024-03-23T12:23:09;8.30;99.90
3053;DHT22;1536;51.098;6.414;2024-03-23T12:25:37;8.30;99.90
3053;DHT22;1536;51.098;6.414;2024-03-23T12:28:04;8.30;99.90
3053;DHT22;1536;51.098;6.414;2024-03-23T12:30:33;8.30;99.90
3053;DHT22;1536;51.098;6.414;2024-03-23T12:32:59;8.40;99.90
3053;DHT22;1536;51.098;6.414;2024-03-23T12:35:26;8.40;99.90
3053;DHT22;1536;51.098;6.414;2024-03-23T12:37:52;8.40;99.90
3053;DHT22;1536;51.098;6.414;2024-03-23T12:40:19;8.50;99.90
3053;DHT22;1536;51.098;6.414;2024-03-23T12:42:45;8.60;99.90
3053;DHT22;1536;51.098;6.414;2024-03-23T12:45:13;8.60;99.90
3053;DHT22;1536;51.098;6.414;2024-03-23T12:47:39;8.70;99.90
3053;DHT22;1536;51.098;6.414;2024-03-23T12:50:06;8.80;99.90
3053;DHT22;1536;51.098;6.414;2024-03-23T12:52:32;8.90;99.90
3053;DHT22;1536;51.098;6.414;2024-03-23T12:54:59;9.00;99.90
3053;DHT22;1536;51.098;6.414;2024-03-23T12:57:25;9.10;99.90
3053;DHT22;1536;51.098;6.414;2024-03-23T12:59:53;9.20;99.90
3053;DHT22;1536;51.098;6.414;2024-03-23T13:02:21;9.40;99.90
3053;DHT22;1536;51.098;6.414;2024-03-23T13:04:50;9.50;99.90
3053;DHT22;1536;51.098;6.414;2024-03-23T13:07:17;9.60;99.90
3053;DHT22;1536;51.098;6.414;2024-03-23T13:09:44;9.70;99.90
3053;DHT22;1536;51.098;6.414;2024-03-23T13:12:10;9.80;99.90
3053;DHT22;1536;51.098;6.414;2024-03-23T13:14:38;10.00;99.90
3053;DHT22;1536;51.098;6.414;2024-03-23T13:17:04;10.10;99.90
3053;DHT22;1536;51.098;6.414;2024-03-23T13:19:32;10.10;99.90
3053;DHT22;1536;51.098;6.414;2024-03-23T13:21:59;10.10;99.90
3053;DHT22;1536;51.098;6.414;2024-03-23T13:24:27;10.10;99.90
3053;DHT22;1536;51.098;6.414;2024-03-23T13:26:54;10.10;99.90
3053;DHT22;1536;51.098;6.414;2024-03-23T13:29:21;10.00;99.90
3053;DHT22;1536;51.098;6.414;2024-03-23T13:31:48;10.00;99.90
3053;DHT22;1536;51.098;6.414;2024-03-23T13:34:16;10.00;99.90
3053;DHT22;1536;51.098;6.414;2024-03-23T13:36:43;9.90;99.90
3053;DHT22;1536;51.098;6.414;2024-03-23T13:39:11;9.80;99.90
3053;DHT22;1536;51.098;6.414;2024-03-23T13:41:38;9.80;99.90
3053;DHT22;1536;51.098;6.414;2024-03-23T13:44:05;9.90;99.90
3053;DHT22;1536;51.098;6.414;2024-03-23T13:46:31;9.80;99.90
3053;DHT22;1536;51.098;6.414;2024-03-23T13:48:58;9.90;99.90
3053;DHT22;1536;51.098;6.414;2024-03-23T13:51:25;9.90;99.90
3053;DHT22;1536;51.098;6.414;2024-03-23T13:53:54;9.90;99.90
3053;DHT22;1536;51.098;6.414;2024-03-23T13:56:22;9.90;99.90
3053;DHT22;1536;51.098;6.414;2024-03-23T13:58:47;9.90;99.90
3053;DHT22;1536;51.098;6.414;2024-03-23T14:01:15;9.90;99.90
3053;DHT22;1536;51.098;6.414;2024-03-23T14:03:41;9.80;99.90
3053;DHT22;1536;51.098;6.414;2024-03-23T14:06:07;9.70;99.90
3053;DHT22;1536;51.098;6.414;2024-03-23T14:08:34;9.60;99.90
3053;DHT22;1536;51.098;6.414;2024-03-23T14:11:03;9.50;99.90
3053;DHT22;1536;51.098;6.414;2024-03-23T14:13:29;9.40;99.90
3053;DHT22;1536;51.098;6.414;2024-03-23T14:15:57;9.40;99.90
3053;DHT22;1536;51.098;6.414;2024-03-23T14:18:22;9.30;99.90
3053;DHT22;1536;51.098;6.414;2024-03-23T14:20:49;9.20;99.90
3053;DHT22;1536;51.098;6.414;2024-03-23T14:23:15;9.10;99.90
3053;DHT22;1536;51.098;6.414;2024-03-23T14:25:42;9.00;99.90
3053;DHT22;1536;51.098;6.414;2024-03-23T14:28:09;9.00;99.90
3053;DHT22;1536;51.098;6.414;2024-03-23T14:30:40;9.00;99.90
3053;DHT22;1536;51.098;6.414;2024-03-23T14:33:06;8.90;99.90
3053;DHT22;1536;51.098;6.414;2024-03-23T14:35:32;8.90;99.90
3053;DHT22;1536;51.098;6.414;2024-03-23T14:37:58;8.90;99.90
3053;DHT22;1536;51.098;6.414;2024-03-23T14:40:25;9.00;99.90
3053;DHT22;1536;51.098;6.414;2024-03-23T14:42:53;9.10;99.90
3053;DHT22;1536;51.098;6.414;2024-03-23T14:45:21;9.20;99.90
3053;DHT22;1536;51.098;6.414;2024-03-23T14:47:49;9.30;99.90
3053;DHT22;1536;51.098;6.414;2024-03-23T14:50:16;9.30;99.90
3053;DHT22;1536;51.098;6.414;2024-03-23T14:52:43;9.30;99.90
3053;DHT22;1536;51.098;6.414;2024-03-23T14:55:10;9.30;99.90
3053;DHT22;1536;51.098;6.414;2024-03-23T14:57:36;9.30;99.90
3053;DHT22;1536;51.098;6.414;2024-03-23T15:00:06;9.30;99.90
3053;DHT22;1536;51.098;6.414;2024-03-23T15:02:34;9.30;99.90
3053;DHT22;1536;51.098;6.414;2024-03-23T15:05:01;9.40;99.90
3053;DHT22;1536;51.098;6.414;2024-03-23T15:07:29;9.60;99.90
3053;DHT22;1536;51.098;6.414;2024-03-23T15:09:56;9.80;99.90
3053;DHT22;1536;51.098;6.414;2024-03-23T15:12:22;9.90;99.90
3053;DHT22;1536;51.098;6.414;2024-03-23T15:14:49;9.90;99.90
3053;DHT22;1536;51.098;6.414;2024-03-23T15:17:14;10.00;99.90
3053;DHT22;1536;51.098;6.414;2024-03-23T15:19:42;10.00;99.90
3053;DHT22;1536;51.098;6.414;2024-03-23T15:22:08;10.00;99.90
3053;DHT22;1536;51.098;6.414;2024-03-23T15:24:35;10.00;99.90
3053;DHT22;1536;51.098;6.414;2024-03-23T15:27:02;9.90;99.90
3053;DHT22;1536;51.098;6.414;2024-03-23T15:29:29;9.80;99.90
3053;DHT22;1536;51.098;6.414;2024-03-23T15:31:55;9.70;99.90
3053;DHT22;1536;51.098;6.414;2024-03-23T15:34:22;9.50;99.90
3053;DHT22;1536;51.098;6.414;2024-03-23T15:36:49;9.40;99.90
3053;DHT22;1536;51.098;6.414;2024-03-23T15:39:17;9.40;99.90
3053;DHT22;1536;51.098;6.414;2024-03-23T15:41:44;9.40;99.90
3053;DHT22;1536;51.098;6.414;2024-03-23T15:44:11;9.30;99.90
3053;DHT22;1536;51.098;6.414;2024-03-23T15:46:37;9.30;99.90
3053;DHT22;1536;51.098;6.414;2024-03-23T15:49:04;9.30;99.90
3053;DHT22;1536;51.098;6.414;2024-03-23T15:51:30;9.30;99.90
3053;DHT22;1536;51.098;6.414;2024-03-23T15:54:00;9.30;99.90
3053;DHT22;1536;51.098;6.414;2024-03-23T15:56:26;9.40;99.90
3053;DHT22;1536;51.098;6.414;2024-03-23T15:58:52;9.40;99.90
3053;DHT22;1536;51.098;6.414;2024-03-23T16:01:18;9.50;99.90
3053;DHT22;1536;51.098;6.414;2024-03-23T16:03:46;9.70;99.90
3053;DHT22;1536;51.098;6.414;2024-03-23T16:06:12;9.70;99.90
3053;DHT22;1536;51.098;6.414;2024-03-23T16:08:38;9.80;99.90
3053;DHT22;1536;51.098;6.414;2024-03-23T16:11:06;9.80;99.90
3053;DHT22;1536;51.098;6.414;2024-03-23T16:13:34;9.80;99.90
3053;DHT22;1536;51.098;6.414;2024-03-23T16:16:01;9.80;99.90
3053;DHT22;1536;51.098;6.414;2024-03-23T16:18:31;9.70;99.90
3053;DHT22;1536;51.098;6.414;2024-03-23T16:20:59;9.70;99.90
3053;DHT22;1536;51.098;6.414;2024-03-23T16:23:26;9.70;99.90
3053;DHT22;1536;51.098;6.414;2024-03-23T16:25:53;9.70;99.90
3053;DHT22;1536;51.098;6.414;2024-03-23T16:28:26;9.70;99.90
3053;DHT22;1536;51.098;6.414;2024-03-23T16:30:54;9.70;99.90
3053;DHT22;1536;51.098;6.414;2024-03-23T16:33:21;9.60;99.90
3053;DHT22;1536;51.098;6.414;2024-03-23T16:35:55;9.60;99.90
3053;DHT22;1536;51.098;6.414;2024-03-23T16:38:22;9.60;99.90
3053;DHT22;1536;51.098;6.414;2024-03-23T16:40:56;9.60;99.90
3053;DHT22;1536;51.098;6.414;2024-03-23T16:43:24;9.50;99.90
3053;DHT22;1536;51.098;6.414;2024-03-23T16:45:59;9.50;99.90
3053;DHT22;1536;51.098;6.414;2024-03-23T16:48:28;9.50;99.90
3053;DHT22;1536;51.098;6.414;2024-03-23T16:50:57;9.40;99.90
3053;DHT22;1536;51.098;6.414;2024-03-23T16:53:24;9.40;99.90
3053;DHT22;1536;51.098;6.414;2024-03-23T16:55:54;9.40;99.90
3053;DHT22;1536;51.098;6.414;2024-03-23T16:58:22;9.40;99.90
3053;DHT22;1536;51.098;6.414;2024-03-23T17:00:48;9.30;99.90
3053;DHT22;1536;51.098;6.414;2024-03-23T17:03:17;9.30;99.90
3053;DHT22;1536;51.098;6.414;2024-03-23T17:05:43;9.30;99.90
3053;DHT22;1536;51.098;6.414;2024-03-23T17:08:09;9.30;99.90